Time;durP1;ratioP1;P1;durP2;ratioP2;P2;SDS_P1;SDS_P2;PMS_P1;PMS_P2;Temp;Humidity;BMP_temperature;BMP_pressure;BME280_temperature;BME280_humidity;BME280_pressure;Samples;Min_cycle;Max_cycle;Signal;HPM_P1;HPM_P2
2021/12/20 00:01:46;;;;;;;5.20;4.80;;;;;;;4.93;71.61;98857.81;5092272;28;20191;-66
2021/12/20 00:04:13;;;;;;;4.60;4.30;;;;;;;4.98;72.22;98866.81;5093074;28;20187;-67
2021/12/20 00:06:40;;;;;;;4.30;4.03;;;;;;;5.04;71.64;98865.28;5092161;28;20223;-67
2021/12/20 00:09:08;;;;;;;4.93;4.63;;;;;;;5.11;71.35;98856.50;5092739;28;20190;-67
2021/12/20 00:11:35;;;;;;;5.40;4.90;;;;;;;5.09;71.04;98863.78;5091845;28;20191;-66
2021/12/20 00:14:02;;;;;;;5.47;4.97;;;;;;;5.04;71.44;98852.97;5091859;28;20195;-67
2021/12/20 00:16:29;;;;;;;4.97;4.57;;;;;;;5.17;70.75;98861.06;5091782;28;20208;-67
2021/12/20 00:18:55;;;;;;;5.23;4.83;;;;;;;5.26;70.81;98856.53;5092119;28;20245;-67
2021/12/20 00:21:22;;;;;;;4.70;4.50;;;;;;;5.21;70.68;98854.47;5091768;28;20195;-66
2021/12/20 00:23:49;;;;;;;5.07;4.77;;;;;;;5.21;70.75;98878.16;5091746;28;20249;-66
2021/12/20 00:26:17;;;;;;;5.47;4.83;;;;;;;5.14;71.34;98876.38;5092128;28;20230;-67
2021/12/20 00:28:44;;;;;;;5.67;5.23;;;;;;;5.03;71.50;98885.50;5092051;28;20187;-67
2021/12/20 00:31:10;;;;;;;5.83;5.43;;;;;;;5.14;71.72;98887.75;5092574;28;20195;-67
2021/12/20 00:33:37;;;;;;;6.53;6.03;;;;;;;5.14;71.81;98900.91;5092019;28;20225;-67
2021/12/20 00:36:06;;;;;;;5.23;4.93;;;;;;;5.10;71.40;98909.31;5092464;28;20195;-67
2021/12/20 00:41:18;;;;;;;5.97;5.57;;;;;;;5.14;71.67;98895.63;5091766;28;20179;-67
2021/12/20 00:43:45;;;;;;;6.43;5.93;;;;;;;5.15;71.68;98905.16;5091507;28;20655;-67
2021/12/20 00:46:12;;;;;;;5.73;5.33;;;;;;;5.18;72.08;98899.56;5092321;28;20292;-66
2021/12/20 00:48:39;;;;;;;5.77;5.40;;;;;;;5.16;71.98;98890.19;5091477;28;20195;-66
2021/12/20 00:51:06;;;;;;;6.23;5.73;;;;;;;5.18;71.91;98891.66;5091476;28;20245;-66
2021/12/20 00:53:33;;;;;;;6.10;5.57;;;;;;;5.24;72.43;98904.09;5091963;28;20225;-66
2021/12/20 00:56:00;;;;;;;6.63;6.03;;;;;;;5.21;72.57;98893.94;5091458;28;20199;-67
2021/12/20 00:58:28;;;;;;;6.80;6.27;;;;;;;5.29;72.72;98901.78;5092592;28;20187;-68
2021/12/20 01:00:58;;;;;;;7.00;6.60;;;;;;;5.30;72.47;98895.50;5092165;28;20541;-66
2021/12/20 01:03:24;;;;;;;6.83;6.27;;;;;;;5.26;72.74;98891.59;5093185;28;20199;-66
2021/12/20 01:05:51;;;;;;;6.70;6.23;;;;;;;5.29;72.06;98885.16;5096058;28;20217;-66
2021/12/20 01:08:19;;;;;;;6.30;5.90;;;;;;;5.32;72.35;98896.13;5094995;28;20195;-68
2021/12/20 01:10:51;;;;;;;6.23;5.73;;;;;;;5.30;72.43;98881.53;5095224;28;20198;-67
2021/12/20 01:13:21;;;;;;;6.27;5.87;;;;;;;5.34;72.03;98888.91;5094863;28;20191;-68
2021/12/20 01:15:52;;;;;;;6.20;5.80;;;;;;;5.32;72.58;98863.75;5094820;28;20196;-67
2021/12/20 01:18:20;;;;;;;7.30;6.20;;;;;;;5.38;73.00;98879.66;5095667;28;20278;-67
2021/12/20 01:20:47;;;;;;;6.70;6.20;;;;;;;5.39;73.02;98870.75;5094738;28;20240;-67
2021/12/20 01:23:14;;;;;;;6.43;6.03;;;;;;;5.48;72.58;98861.75;5095782;28;20188;-67
2021/12/20 01:25:41;;;;;;;6.00;5.70;;;;;;;5.52;72.89;98868.31;5095233;28;20300;-66
2021/12/20 01:28:10;;;;;;;6.00;5.60;;;;;;;5.61;72.43;98843.53;5095796;28;20184;-67
2021/12/20 01:30:38;;;;;;;7.20;6.60;;;;;;;5.64;72.62;98856.34;5095416;28;20248;-67
2021/12/20 01:33:08;;;;;;;6.60;6.00;;;;;;;5.68;72.30;98860.25;5094416;28;20254;-67
2021/12/20 01:35:35;;;;;;;6.63;6.13;;;;;;;5.60;73.11;98862.97;5095075;28;20249;-68
2021/12/20 01:38:02;;;;;;;6.33;5.90;;;;;;;5.58;73.43;98864.97;5094687;28;20192;-67
2021/12/20 01:40:29;;;;;;;6.97;6.47;;;;;;;5.41;74.73;98858.22;5094356;28;20760;-66
2021/12/20 01:42:58;;;;;;;6.60;6.20;;;;;;;5.41;74.64;98863.50;5095440;28;20249;-66
2021/12/20 01:45:27;;;;;;;6.33;5.93;;;;;;;5.31;74.84;98852.38;5094773;28;20199;-66
2021/12/20 01:48:02;;;;;;;6.27;5.97;;;;;;;5.39;74.79;98865.47;5095049;28;20195;-67
2021/12/20 01:50:49;;;;;;;6.17;5.77;;;;;;;5.39;74.09;98854.94;5093601;28;20214;-69
2021/12/20 01:53:20;;;;;;;6.10;5.80;;;;;;;5.40;74.31;98832.06;5093239;28;20266;-67
2021/12/20 01:55:47;;;;;;;6.23;5.83;;;;;;;5.36;74.33;98834.22;5093347;28;20268;-67
2021/12/20 01:58:14;;;;;;;6.30;5.90;;;;;;;5.38;73.70;98832.25;5093729;28;20253;-67
2021/12/20 02:03:26;;;;;;;6.30;5.90;;;;;;;5.39;74.24;98833.88;5093978;28;20183;-67
2021/12/20 02:05:57;;;;;;;5.80;5.50;;;;;;;5.31;74.27;98836.59;5094028;28;20288;-67
2021/12/20 02:08:26;;;;;;;5.93;5.43;;;;;;;5.34;74.12;98844.13;5093882;28;20643;-66
2021/12/20 02:10:55;;;;;;;6.33;5.93;;;;;;;5.24;73.78;98840.91;5094528;28;20568;-67
2021/12/20 02:13:24;;;;;;;5.43;5.13;;;;;;;5.21;73.94;98845.72;5093683;28;20195;-67
2021/12/20 02:15:51;;;;;;;5.67;5.27;;;;;;;5.16;74.54;98842.81;5093500;28;20205;-66
2021/12/20 02:18:18;;;;;;;6.47;5.87;;;;;;;5.12;74.55;98846.81;5093918;28;20256;-66
2021/12/20 02:20:46;;;;;;;6.37;5.90;;;;;;;4.93;75.89;98845.47;5093585;28;20655;-67
2021/12/20 02:23:13;;;;;;;5.83;5.43;;;;;;;4.98;75.83;98851.03;5093804;28;20188;-66
2021/12/20 02:25:40;;;;;;;5.97;5.57;;;;;;;5.07;75.74;98860.47;5093166;28;20279;-67
2021/12/20 02:28:10;;;;;;;6.13;5.57;;;;;;;5.33;74.70;98863.56;5093484;28;20246;-66
2021/12/20 02:30:45;;;;;;;5.90;5.50;;;;;;;5.51;73.90;98864.06;5093214;28;20195;-66
2021/12/20 02:38:44;;;;;;;5.10;4.80;;;;;;;5.86;72.35;98867.84;5093950;28;20538;-65
2021/12/20 02:41:14;;;;;;;5.17;4.73;;;;;;;6.03;70.82;98879.00;5093137;28;20671;-65
2021/12/20 02:43:43;;;;;;;5.40;5.00;;;;;;;6.12;71.05;98883.22;5093366;28;20195;-66
2021/12/20 02:46:26;;;;;;;5.50;5.03;;;;;;;6.23;70.29;98880.09;5093850;28;20219;-66
2021/12/20 02:48:53;;;;;;;5.47;5.07;;;;;;;6.22;70.64;98876.66;5093065;28;20206;-66
2021/12/20 02:51:23;;;;;;;5.67;5.20;;;;;;;6.34;69.94;98882.28;5093315;28;20199;-67
2021/12/20 02:53:51;;;;;;;5.33;4.93;;;;;;;6.41;69.93;98888.44;5094325;28;20249;-67
2021/12/20 02:56:18;;;;;;;5.03;4.77;;;;;;;6.42;70.17;98880.34;5092905;28;20681;-67
2021/12/20 02:58:45;;;;;;;5.27;4.93;;;;;;;6.46;69.21;98886.06;5092819;28;20656;-65
2021/12/20 03:01:12;;;;;;;4.63;4.43;;;;;;;6.41;69.67;98886.63;5093004;28;20245;-66
2021/12/20 03:03:39;;;;;;;5.50;5.10;;;;;;;6.46;69.61;98883.44;5092287;28;20252;-68
2021/12/20 03:06:09;;;;;;;5.97;5.47;;;;;;;6.31;69.75;98893.19;5091568;28;20269;-68
2021/12/20 03:08:39;;;;;;;5.57;5.30;;;;;;;6.23;69.57;98891.47;5092482;28;20210;-67
2021/12/20 03:11:06;;;;;;;5.47;5.17;;;;;;;6.25;69.97;98884.19;5092010;28;20187;-67
2021/12/20 03:13:33;;;;;;;5.03;4.83;;;;;;;6.20;70.04;98883.91;5092485;28;20195;-67
2021/12/20 03:16:00;;;;;;;5.27;4.97;;;;;;;6.20;70.23;98888.38;5092513;28;20574;-66
2021/12/20 03:18:26;;;;;;;5.37;4.97;;;;;;;6.12;70.50;98893.75;5092858;28;20191;-67
2021/12/20 03:20:53;;;;;;;4.43;4.13;;;;;;;6.11;70.46;98892.09;5092764;28;20246;-66
2021/12/20 03:23:20;;;;;;;5.00;4.70;;;;;;;6.20;70.07;98904.22;5092403;28;20195;-66
2021/12/20 03:25:48;;;;;;;4.63;4.43;;;;;;;6.19;69.99;98905.19;5091669;28;20270;-66
2021/12/20 03:28:15;;;;;;;4.67;4.37;;;;;;;6.30;69.65;98907.38;5092165;28;20670;-68
2021/12/20 03:30:42;;;;;;;4.83;4.63;;;;;;;6.21;69.69;98898.72;5092260;28;20663;-67
2021/12/20 03:33:09;;;;;;;5.60;5.23;;;;;;;6.22;69.66;98899.56;5092570;28;20243;-67
2021/12/20 03:35:36;;;;;;;5.00;4.70;;;;;;;6.21;69.91;98896.09;5092837;28;20190;-67
2021/12/20 03:38:03;;;;;;;4.43;4.23;;;;;;;6.18;69.93;98898.28;5092189;28;20195;-68
2021/12/20 03:40:30;;;;;;;5.27;4.97;;;;;;;6.14;70.09;98891.75;5092467;28;20187;-66
2021/12/20 03:42:58;;;;;;;5.67;5.17;;;;;;;6.11;70.40;98897.38;5092132;28;20656;-66
2021/12/20 03:45:25;;;;;;;5.13;4.73;;;;;;;6.09;70.29;98894.09;5092120;28;20195;-66
2021/12/20 03:47:51;;;;;;;5.53;5.13;;;;;;;6.11;70.58;98892.91;5092470;28;20280;-66
2021/12/20 03:50:19;;;;;;;5.47;5.17;;;;;;;6.14;70.25;98894.38;5092123;28;20317;-67
2021/12/20 03:52:45;;;;;;;5.40;5.10;;;;;;;6.12;70.40;98899.03;5092033;28;20655;-67
2021/12/20 03:55:14;;;;;;;5.23;4.87;;;;;;;6.05;71.27;98900.75;5092324;28;20192;-66
2021/12/20 03:57:40;;;;;;;6.63;6.13;;;;;;;5.98;71.21;98907.72;5092836;28;20260;-67
2021/12/20 04:00:12;;;;;;;5.83;5.43;;;;;;;5.89;71.33;98882.47;5093080;28;20667;-66
2021/12/20 04:02:42;;;;;;;6.23;5.90;;;;;;;5.96;71.74;98907.09;5092511;28;20590;-66
2021/12/20 04:05:09;;;;;;;6.40;6.00;;;;;;;5.78;71.76;98889.81;5093136;28;20190;-65
2021/12/20 04:07:36;;;;;;;6.30;5.90;;;;;;;5.87;71.63;98900.28;5092187;28;20215;-66
2021/12/20 04:10:04;;;;;;;6.10;5.70;;;;;;;5.84;71.85;98905.91;5093014;28;20187;-66
2021/12/20 04:12:31;;;;;;;6.33;5.93;;;;;;;5.92;70.71;98913.75;5092157;28;20186;-66
2021/12/20 04:14:57;;;;;;;7.03;6.63;;;;;;;5.86;71.22;98910.00;5092130;28;20195;-66
2021/12/20 04:17:25;;;;;;;6.40;5.90;;;;;;;5.89;71.32;98908.81;5091763;28;20196;-66
2021/12/20 04:19:52;;;;;;;6.67;6.27;;;;;;;5.86;71.44;98914.44;5091703;28;20666;-66
2021/12/20 04:22:19;;;;;;;5.93;5.53;;;;;;;5.86;71.90;98914.44;5091673;28;20655;-66
2021/12/20 04:24:46;;;;;;;5.80;5.40;;;;;;;5.85;71.46;98918.09;5091667;28;20234;-66
2021/12/20 04:27:13;;;;;;;5.67;5.37;;;;;;;5.87;70.92;98922.19;5091826;28;20227;-66
2021/12/20 04:29:40;;;;;;;6.23;5.83;;;;;;;5.88;71.32;98917.75;5091643;28;20192;-67
2021/12/20 04:32:07;;;;;;;6.10;5.70;;;;;;;5.91;70.84;98918.19;5091883;28;20264;-66
2021/12/20 04:34:35;;;;;;;6.60;6.20;;;;;;;5.92;70.96;98924.28;5091595;28;20623;-66
2021/12/20 04:37:03;;;;;;;7.00;6.33;;;;;;;5.84;71.39;98921.72;5091956;28;20260;-66
2021/12/20 04:39:31;;;;;;;6.60;6.20;;;;;;;5.88;71.47;98928.28;5095499;28;20192;-66
2021/12/20 04:42:00;;;;;;;6.70;6.20;;;;;;;5.86;71.45;98931.09;5095725;28;20198;-68
2021/12/20 04:44:26;;;;;;;7.70;7.10;;;;;;;5.85;71.32;98928.63;5095612;28;20194;-66
2021/12/20 04:46:53;;;;;;;6.70;6.30;;;;;;;5.90;71.21;98931.53;5095231;28;20214;-67
2021/12/20 04:49:20;;;;;;;6.87;6.47;;;;;;;5.86;71.34;98925.81;5095638;28;20191;-67
2021/12/20 04:51:48;;;;;;;7.17;6.67;;;;;;;5.85;71.75;98924.19;5095738;28;20600;-66
2021/12/20 04:54:15;;;;;;;7.33;6.73;;;;;;;5.86;72.15;98924.97;5096278;28;20191;-67
2021/12/20 04:56:41;;;;;;;6.70;6.20;;;;;;;5.90;72.12;98924.47;5095396;28;20383;-68
2021/12/20 04:59:08;;;;;;;6.73;6.23;;;;;;;5.95;72.02;98934.47;5095113;28;20247;-69
2021/12/20 05:01:35;;;;;;;7.80;7.20;;;;;;;5.90;72.68;98935.00;5095258;28;20253;-68
2021/12/20 05:04:01;;;;;;;8.00;7.37;;;;;;;5.99;72.67;98930.44;5094940;28;20707;-67
2021/12/20 05:06:29;;;;;;;21.07;18.93;;;;;;;5.95;73.17;98935.28;5095010;28;20621;-68
2021/12/20 05:08:57;;;;;;;8.57;7.53;;;;;;;5.95;73.32;98937.91;5094949;28;20274;-67
2021/12/20 05:11:26;;;;;;;7.27;6.70;;;;;;;6.04;72.94;98944.72;5094991;28;20191;-68
2021/12/20 05:13:52;;;;;;;7.23;6.73;;;;;;;6.06;72.97;98934.84;5095382;28;20211;-65
2021/12/20 05:16:20;;;;;;;8.20;7.40;;;;;;;6.15;72.44;98935.53;5094673;28;20195;-68
2021/12/20 05:18:47;;;;;;;9.90;9.00;;;;;;;6.25;71.83;98930.84;5095250;28;20198;-68
2021/12/20 05:21:14;;;;;;;6.23;5.83;;;;;;;6.36;71.17;98938.31;5095185;28;20191;-68
2021/12/20 05:23:41;;;;;;;7.03;6.53;;;;;;;6.48;71.33;98942.09;5094489;28;20205;-68
2021/12/20 05:26:09;;;;;;;6.40;5.80;;;;;;;6.46;71.10;98941.47;5094067;28;20222;-68
2021/12/20 05:28:36;;;;;;;6.33;5.93;;;;;;;6.52;71.23;98927.53;5094288;28;20277;-68
2021/12/20 05:31:02;;;;;;;15.47;12.77;;;;;;;6.55;70.71;98932.44;5094712;28;20221;-68
2021/12/20 05:33:29;;;;;;;5.57;5.17;;;;;;;6.58;70.52;98934.72;5093323;28;20263;-68
2021/12/20 05:35:56;;;;;;;6.77;6.20;;;;;;;6.60;71.21;98938.81;5092158;28;20256;-68
2021/12/20 05:38:22;;;;;;;7.20;5.83;;;;;;;6.63;70.25;98949.00;5092338;28;20203;-68
2021/12/20 05:40:49;;;;;;;6.23;5.93;;;;;;;6.62;70.58;98955.25;5092325;28;20187;-71
2021/12/20 05:43:17;;;;;;;6.67;6.07;;;;;;;6.64;70.13;98944.53;5092306;28;20195;-71
2021/12/20 05:45:44;;;;;;;6.90;6.30;;;;;;;6.58;70.82;98961.09;5092273;28;20202;-71
2021/12/20 05:48:10;;;;;;;6.80;6.20;;;;;;;6.51;70.90;98968.09;5092534;28;20216;-70
2021/12/20 05:50:37;;;;;;;6.43;5.93;;;;;;;6.51;71.06;98978.66;5093510;28;20249;-71
2021/12/20 05:53:04;;;;;;;7.37;6.83;;;;;;;6.47;71.25;98988.78;5093970;28;20731;-70
2021/12/20 05:55:31;;;;;;;7.27;6.77;;;;;;;6.51;71.75;98986.56;5094144;28;20255;-68
2021/12/20 05:57:57;;;;;;;8.37;7.67;;;;;;;6.44;72.06;98989.13;5093475;28;20201;-69
2021/12/20 06:00:25;;;;;;;7.20;6.67;;;;;;;6.41;71.87;98983.41;5093029;28;20194;-68
2021/12/20 06:02:53;;;;;;;6.87;6.47;;;;;;;6.46;71.76;98981.88;5093807;28;20251;-67
2021/12/20 06:05:21;;;;;;;8.13;7.33;;;;;;;6.44;71.86;98983.03;5092723;28;20572;-68
2021/12/20 06:07:49;;;;;;;8.23;7.43;;;;;;;6.45;72.16;98984.69;5090961;28;20216;-69
2021/12/20 06:10:17;;;;;;;7.40;6.70;;;;;;;6.43;71.95;98965.56;5093205;28;20191;-71
2021/12/20 06:12:45;;;;;;;7.37;6.87;;;;;;;6.41;71.30;98967.56;5093533;28;20199;-69
2021/12/20 06:15:12;;;;;;;6.73;6.23;;;;;;;6.38;71.24;98974.03;5093429;28;20728;-69
2021/12/20 06:17:41;;;;;;;7.07;6.47;;;;;;;6.43;71.07;98969.03;5091041;28;20261;-70
2021/12/20 06:20:10;;;;;;;7.40;6.70;;;;;;;6.30;71.75;98970.66;5092058;28;20191;-71
2021/12/20 06:22:38;;;;;;;7.97;7.17;;;;;;;6.37;71.54;98971.59;5091937;28;20198;-70
2021/12/20 06:25:06;;;;;;;6.63;6.03;;;;;;;6.38;70.50;98975.84;5089172;28;20199;-70
2021/12/20 06:27:32;;;;;;;5.87;5.47;;;;;;;6.34;70.53;98987.75;5084660;28;20254;-75
2021/12/20 06:29:59;;;;;;;6.13;5.50;;;;;;;6.41;69.94;98988.69;5088736;28;20197;-73
2021/12/20 06:32:26;;;;;;;6.20;5.70;;;;;;;6.45;69.40;98989.94;5087560;28;20247;-74
2021/12/20 06:34:54;;;;;;;6.37;5.50;;;;;;;6.57;69.40;98972.66;5090251;28;20196;-73
2021/12/20 06:37:21;;;;;;;8.30;7.27;;;;;;;6.64;68.75;98973.53;5092484;28;20195;-74
2021/12/20 06:39:47;;;;;;;11.57;10.13;;;;;;;6.71;69.07;98985.84;5074348;28;20746;-75
2021/12/20 06:42:14;;;;;;;13.37;12.00;;;;;;;6.83;68.21;98991.47;5091800;28;20191;-71
2021/12/20 06:44:41;;;;;;;11.33;10.13;;;;;;;6.86;67.96;98996.38;5091712;28;20656;-73
2021/12/20 06:47:08;;;;;;;12.17;8.77;;;;;;;6.72;68.26;98982.19;5092824;28;20223;-71
2021/12/20 06:49:34;;;;;;;7.20;5.60;;;;;;;6.86;68.10;99005.09;5092343;28;20580;-71
2021/12/20 06:52:03;;;;;;;5.63;5.33;;;;;;;7.03;67.87;99005.72;5092483;28;20191;-72
2021/12/20 06:54:30;;;;;;;7.60;5.27;;;;;;;7.17;67.38;99007.50;5091588;28;20686;-73
2021/12/20 06:56:57;;;;;;;5.00;4.73;;;;;;;7.24;67.34;99011.03;5091995;28;20249;-72
2021/12/20 06:59:24;;;;;;;6.23;4.80;;;;;;;7.21;67.01;99025.44;5092128;28;20563;-73
2021/12/20 07:01:50;;;;;;;7.20;6.60;;;;;;;7.23;67.52;99019.97;5092145;28;20662;-73
2021/12/20 07:04:17;;;;;;;5.83;5.43;;;;;;;7.26;67.29;99022.25;5090626;28;20247;-76
2021/12/20 07:06:44;;;;;;;5.27;4.97;;;;;;;7.25;67.28;99017.94;5092446;28;20191;-72
2021/12/20 07:09:13;;;;;;;8.03;5.47;;;;;;;7.36;67.63;99028.88;5091801;28;20279;-71
2021/12/20 07:11:41;;;;;;;6.63;6.20;;;;;;;7.32;67.52;99032.06;5091508;28;20191;-73
2021/12/20 07:14:09;;;;;;;5.70;5.30;;;;;;;7.25;67.65;99020.59;5091563;28;20190;-73
2021/12/20 07:16:36;;;;;;;6.33;5.93;;;;;;;7.31;67.61;99025.16;5091304;28;20194;-72
2021/12/20 07:19:04;;;;;;;5.60;4.53;;;;;;;7.29;66.82;99043.00;5092143;28;20281;-73
2021/12/20 07:21:31;;;;;;;5.37;4.83;;;;;;;7.24;67.11;99027.72;5090662;28;20200;-76
2021/12/20 07:23:58;;;;;;;6.10;5.50;;;;;;;7.25;67.16;99021.41;5091649;28;20216;-77
2021/12/20 07:26:26;;;;;;;7.53;5.30;;;;;;;7.22;67.96;99013.06;5091682;28;20617;-75
2021/12/20 07:28:52;;;;;;;15.47;5.57;;;;;;;7.45;66.74;99016.34;5092301;28;20219;-73
2021/12/20 07:31:22;;;;;;;5.50;5.00;;;;;;;7.84;65.85;99029.94;5092335;28;20551;-75
2021/12/20 07:33:49;;;;;;;8.07;4.50;;;;;;;8.08;64.45;99026.91;5090383;28;20231;-74
2021/12/20 07:36:19;;;;;;;5.20;4.77;;;;;;;8.30;63.68;99023.22;5092413;28;20632;-73
2021/12/20 07:38:46;;;;;;;7.33;6.57;;;;;;;8.49;62.43;99027.84;5091515;28;20217;-74
2021/12/20 07:41:12;;;;;;;8.20;5.63;;;;;;;8.72;62.46;99037.16;5091890;28;20218;-74
2021/12/20 07:43:40;;;;;;;6.70;5.97;;;;;;;9.00;61.86;99029.13;5092424;28;20252;-75
2021/12/20 07:46:07;;;;;;;5.43;4.90;;;;;;;9.23;59.44;99041.03;5092605;28;20191;-73
2021/12/20 07:48:34;;;;;;;5.23;4.73;;;;;;;9.31;59.13;99045.38;5091036;28;20219;-70
2021/12/20 07:51:01;;;;;;;5.23;4.93;;;;;;;9.51;59.18;99040.91;5092016;28;20191;-70
2021/12/20 07:53:28;;;;;;;7.60;4.13;;;;;;;9.54;57.66;99041.34;5091094;28;20195;-75
2021/12/20 07:55:55;;;;;;;12.57;9.07;;;;;;;9.58;58.32;99041.75;5091413;28;20198;-74
2021/12/20 07:58:22;;;;;;;5.30;4.80;;;;;;;9.66;57.24;99033.63;5091233;28;20244;-72
2021/12/20 08:00:50;;;;;;;4.17;3.97;;;;;;;9.66;57.28;99038.94;5091159;28;20244;-73
2021/12/20 08:03:17;;;;;;;6.60;6.20;;;;;;;9.74;57.58;99038.75;5091368;28;20261;-73
2021/12/20 08:05:44;;;;;;;7.43;6.83;;;;;;;10.01;56.25;99048.38;5091381;28;20755;-74
2021/12/20 08:08:11;;;;;;;5.00;4.50;;;;;;;9.96;55.90;99043.66;5091312;28;20305;-73
2021/12/20 08:10:38;;;;;;;7.43;4.77;;;;;;;10.02;56.11;99050.00;5091330;28;20614;-77
2021/12/20 08:13:05;;;;;;;5.20;4.73;;;;;;;10.14;56.00;99046.56;5093071;28;20191;-71
2021/12/20 08:15:31;;;;;;;4.37;3.83;;;;;;;10.39;54.88;99052.91;5078445;28;20252;-69
2021/12/20 08:17:59;;;;;;;3.37;3.17;;;;;;;10.50;54.17;99027.56;5074801;28;20197;-75
2021/12/20 08:20:27;;;;;;;8.30;3.70;;;;;;;10.72;54.31;99042.22;5074921;28;20195;-72
2021/12/20 08:22:54;;;;;;;4.57;3.37;;;;;;;10.73;53.58;99046.50;5075608;28;20191;-72
2021/12/20 08:25:21;;;;;;;3.83;3.20;;;;;;;10.74;53.88;99048.13;5074520;28;20626;-72
2021/12/20 08:27:49;;;;;;;10.67;3.00;;;;;;;10.63;53.00;99035.50;5075228;28;20220;-75
2021/12/20 08:30:16;;;;;;;5.10;3.50;;;;;;;10.91;52.25;99046.69;5073911;28;20191;-72
2021/12/20 08:32:43;;;;;;;3.37;3.17;;;;;;;10.92;52.45;99046.44;5075549;28;20209;-72
2021/12/20 08:35:13;;;;;;;5.10;2.97;;;;;;;11.09;51.79;99049.47;5075037;28;20257;-73
2021/12/20 08:37:40;;;;;;;13.17;3.80;;;;;;;11.18;50.61;99053.50;5080148;28;20675;-69
2021/12/20 08:40:10;;;;;;;6.20;2.73;;;;;;;11.33;50.56;99062.06;5095116;28;20672;-71
2021/12/20 08:42:37;;;;;;;7.80;3.80;;;;;;;11.22;50.37;99052.06;5094988;28;20198;-80
2021/12/20 08:45:04;;;;;;;8.27;3.23;;;;;;;11.36;50.07;99051.00;5095072;28;20245;-76
2021/12/20 08:47:32;;;;;;;2.73;2.33;;;;;;;11.25;50.10;99062.28;5095428;28;20192;-75
2021/12/20 08:50:00;;;;;;;13.27;3.77;;;;;;;11.33;49.45;99045.28;5098860;28;20235;-75
2021/12/20 08:52:28;;;;;;;8.50;3.40;;;;;;;11.53;48.99;99057.47;5116806;28;20192;-78
2021/12/20 08:54:55;;;;;;;2.80;2.60;;;;;;;11.45;47.99;99068.34;5116647;28;20188;-72
2021/12/20 08:57:22;;;;;;;3.33;3.03;;;;;;;11.68;47.72;99060.66;5112813;28;20204;-78
2021/12/20 08:59:48;;;;;;;10.37;3.00;;;;;;;11.45;47.04;99060.38;5102506;28;20577;-80
2021/12/20 09:02:15;;;;;;;8.40;5.33;;;;;;;11.31;46.90;99069.41;5094456;28;20200;-76
2021/12/20 09:04:42;;;;;;;14.43;3.23;;;;;;;11.07;47.42;99064.81;5092790;28;20196;-72
2021/12/20 09:07:14;;;;;;;2.60;2.50;;;;;;;11.02;48.46;99067.28;5094955;28;20187;-74
2021/12/20 09:09:44;;;;;;;11.53;3.50;;;;;;;11.15;48.18;99058.44;5094819;28;20215;-73
2021/12/20 09:12:11;;;;;;;21.93;3.90;;;;;;;11.11;47.87;99047.41;5094890;28;20198;-76
2021/12/20 09:14:38;;;;;;;14.23;3.40;;;;;;;11.29;47.67;99055.53;5094585;28;20192;-74
2021/12/20 09:17:05;;;;;;;9.40;2.87;;;;;;;11.32;47.55;99062.25;5094976;28;20245;-74
2021/12/20 09:19:34;;;;;;;5.10;2.73;;;;;;;11.48;47.44;99053.81;5094128;28;20250;-75
2021/12/20 09:22:01;;;;;;;3.53;2.50;;;;;;;11.54;47.02;99048.44;5093495;28;20231;-73
2021/12/20 09:24:28;;;;;;;20.10;4.87;;;;;;;11.70;46.73;99047.97;5093448;28;20196;-73
2021/12/20 09:26:56;;;;;;;6.80;2.30;;;;;;;12.00;45.95;99059.66;5093917;28;20278;-73
2021/12/20 09:29:22;;;;;;;4.50;2.57;;;;;;;11.81;45.86;99060.63;5094044;28;20255;-72
2021/12/20 09:31:49;;;;;;;14.63;3.33;;;;;;;12.05;45.95;99065.13;5093602;28;20188;-73
2021/12/20 09:34:16;;;;;;;3.13;2.70;;;;;;;12.22;45.67;99052.94;5093487;28;20626;-71
2021/12/20 09:36:43;;;;;;;11.37;2.97;;;;;;;12.50;45.10;99066.63;5094090;28;20194;-71
2021/12/20 09:39:11;;;;;;;3.17;2.87;;;;;;;12.35;45.24;99076.81;5093740;28;20197;-76
2021/12/20 09:44:38;;;;;;;4.70;2.13;;;;;;;12.25;44.55;99057.81;5051837;28;20281;-75
2021/12/20 09:47:05;;;;;;;24.03;2.80;;;;;;;12.27;44.18;99055.78;5051134;28;20199;-65
2021/12/20 09:49:33;;;;;;;3.47;3.17;;;;;;;12.15;44.46;99046.03;5069871;28;20781;-66
2021/12/20 09:52:00;;;;;;;11.90;3.33;;;;;;;11.97;44.12;99049.44;5093140;28;20925;-67
2021/12/20 09:54:29;;;;;;;21.33;3.20;;;;;;;11.83;44.39;99063.03;5092981;28;20298;-67
2021/12/20 09:56:58;;;;;;;6.03;2.00;;;;;;;11.77;44.15;99059.41;5093724;28;20198;-65
2021/12/20 09:59:28;;;;;;;6.00;2.47;;;;;;;12.01;44.17;99050.63;5092757;28;20261;-65
2021/12/20 10:01:58;;;;;;;1.90;1.80;;;;;;;11.76;44.30;99052.44;5092813;28;20220;-67
2021/12/20 10:04:26;;;;;;;3.70;1.70;;;;;;;11.97;43.29;99054.75;5093309;28;20197;-67
2021/12/20 10:06:54;;;;;;;3.77;2.30;;;;;;;12.02;43.16;99062.09;5092934;28;20193;-68
2021/12/20 10:09:26;;;;;;;7.27;2.93;;;;;;;12.18;43.35;99061.56;5093105;28;20221;-67
2021/12/20 10:12:15;;;;;;;5.17;2.30;;;;;;;11.83;42.91;99058.53;5093866;28;20190;-68
2021/12/20 10:15:05;;;;;;;2.57;2.10;;;;;;;11.82;43.95;99062.25;5083225;28;20273;-69
2021/12/20 10:17:36;;;;;;;2.77;2.53;;;;;;;11.81;44.66;99039.31;5073994;28;20194;-69
2021/12/20 10:20:17;;;;;;;2.70;2.20;;;;;;;11.90;44.55;99050.50;5073165;28;20642;-65
2021/12/20 10:22:44;;;;;;;8.27;2.10;;;;;;;11.88;43.63;99053.38;5072956;28;20251;-66
2021/12/20 10:25:28;;;;;;;2.10;2.00;;;;;;;12.00;43.55;99053.53;5072860;28;20728;-65
2021/12/20 10:28:04;;;;;;;2.50;1.80;;;;;;;12.00;42.57;99049.00;5073000;28;20246;-67
2021/12/20 10:30:33;;;;;;;3.17;1.80;;;;;;;12.08;42.89;99053.25;5092488;28;20242;-66
2021/12/20 10:33:02;;;;;;;6.17;1.70;;;;;;;12.12;42.68;99047.28;5093161;28;20193;-67
2021/12/20 10:35:35;;;;;;;2.30;2.20;;;;;;;11.92;42.64;99056.44;5092854;28;20196;-67
2021/12/20 10:38:04;;;;;;;2.37;2.10;;;;;;;11.71;43.50;99060.25;5093350;28;20258;-67
2021/12/20 10:40:32;;;;;;;13.37;3.10;;;;;;;12.01;43.15;99061.28;5093015;28;20192;-67
2021/12/20 10:43:00;;;;;;;10.20;2.23;;;;;;;11.90;42.53;99050.50;5092810;28;20227;-67
2021/12/20 10:45:28;;;;;;;10.07;2.87;;;;;;;11.87;42.26;99049.09;5093602;28;20250;-66
2021/12/20 10:47:54;;;;;;;2.50;2.30;;;;;;;11.68;42.79;99054.56;5092883;28;20200;-69
2021/12/20 10:50:28;;;;;;;2.30;2.20;;;;;;;11.78;42.84;99069.03;5092651;28;20770;-67
2021/12/20 10:53:12;;;;;;;16.57;3.30;;;;;;;11.57;42.97;99057.84;5087524;28;20193;-66
2021/12/20 10:55:41;;;;;;;5.30;2.10;;;;;;;11.81;42.85;99063.28;5092291;28;20557;-64
2021/12/20 10:58:33;;;;;;;2.23;1.87;;;;;;;11.81;42.49;99062.44;5092485;28;20192;-65
2021/12/20 11:01:22;;;;;;;2.57;2.47;;;;;;;11.64;42.47;99064.78;5089349;28;20320;-65
2021/12/20 11:03:58;;;;;;;7.73;2.40;;;;;;;11.23;43.19;99056.34;5086168;28;20583;-65
2021/12/20 11:06:40;;;;;;;5.83;2.00;;;;;;;10.94;43.85;99067.50;5092205;28;20680;-65
2021/12/20 11:09:15;;;;;;;3.70;1.70;;;;;;;10.46;44.96;99047.59;5092216;28;20209;-63
2021/12/20 11:11:49;;;;;;;3.20;2.60;;;;;;;10.52;45.85;99050.22;5092262;28;20195;-65
2021/12/20 11:14:17;;;;;;;5.50;5.20;;;;;;;10.59;45.65;99058.19;5085900;28;20246;-64
2021/12/20 11:16:45;;;;;;;5.20;4.80;;;;;;;10.69;46.31;99058.56;5072240;28;20196;-65
2021/12/20 11:19:16;;;;;;;2.70;2.60;;;;;;;10.78;45.89;99050.16;5077701;28;20574;-65
2021/12/20 11:21:50;;;;;;;2.00;1.80;;;;;;;10.63;45.90;99044.25;5092728;28;20192;-65
2021/12/20 11:24:19;;;;;;;8.67;2.93;;;;;;;10.46;46.06;99048.38;5091601;28;20645;-66
2021/12/20 11:26:46;;;;;;;5.30;3.80;;;;;;;10.43;46.05;99058.59;5089855;28;20363;-66
2021/12/20 11:29:13;;;;;;;6.10;2.33;;;;;;;10.27;45.71;99051.06;5092295;28;20215;-66
2021/12/20 11:31:40;;;;;;;4.33;2.03;;;;;;;10.05;46.66;99054.94;5091977;28;20196;-64
2021/12/20 11:34:07;;;;;;;2.47;2.27;;;;;;;10.23;47.27;99042.69;5091811;28;20195;-65
2021/12/20 11:36:35;;;;;;;6.50;5.67;;;;;;;10.41;46.48;99034.09;5090924;28;20612;-67
2021/12/20 11:39:04;;;;;;;2.50;2.40;;;;;;;10.42;46.42;99041.06;5091220;28;20211;-65
2021/12/20 11:41:32;;;;;;;5.10;4.80;;;;;;;10.48;46.35;99046.34;5091818;28;20191;-64
2021/12/20 11:44:00;;;;;;;3.73;3.63;;;;;;;10.46;46.06;99032.44;5091731;28;20563;-65
2021/12/20 11:46:31;;;;;;;2.27;2.07;;;;;;;10.27;46.26;99035.97;5087659;28;20621;-68
2021/12/20 11:49:00;;;;;;;1.90;1.80;;;;;;;10.24;46.73;99038.19;5091199;28;20203;-65
2021/12/20 11:51:27;;;;;;;8.70;2.20;;;;;;;10.30;47.37;99048.00;5088410;28;20249;-64
2021/12/20 11:53:54;;;;;;;1.70;1.60;;;;;;;10.27;48.17;99048.41;5091926;28;20195;-67
2021/12/20 11:59:14;;;;;;;2.10;2.00;;;;;;;10.23;47.60;99047.19;5087708;27;1278441;-67
2021/12/20 12:01:40;;;;;;;9.77;2.63;;;;;;;10.25;48.02;99045.16;5129902;28;20187;-66